Time;durP1;ratioP1;P1;durP2;ratioP2;P2;SDS_P1;SDS_P2;PMS_P1;PMS_P2;Temp;Humidity;BMP_temperature;BMP_pressure;BME280_temperature;BME280_humidity;BME280_pressure;Samples;Min_cycle;Max_cycle;Signal;HPM_P1;HPM_P2
2023/01/01 00:01:29;;;;;;;20.45;9.38;;;;;;;-5.24;67.87;99794.66;4868700;28;20050;-64
2023/01/01 00:04:07;;;;;;;24.80;10.88;;;;;;;-5.21;68.20;99794.78;4847243;28;20241;-66
2023/01/01 00:06:46;;;;;;;28.95;12.63;;;;;;;-5.11;68.35;99792.59;4821281;28;20110;-66
2023/01/01 00:12:37;;;;;;;21.65;10.02;;;;;;;-4.92;68.68;99784.81;4819741;28;20056;-65
2023/01/01 00:18:12;;;;;;;20.60;11.13;;;;;;;-4.44;67.87;99782.38;4852790;28;20038;-66
2023/01/01 00:20:45;;;;;;;23.20;11.02;;;;;;;-4.77;68.17;99736.09;4860971;28;20057;-63
2023/01/01 00:23:28;;;;;;;19.98;9.95;;;;;;;-4.89;68.95;99739.09;4842427;28;20096;-65
2023/01/01 00:26:20;;;;;;;25.08;11.05;;;;;;;-4.77;69.05;99798.16;4836352;28;20322;-67
2023/01/01 00:29:09;;;;;;;19.63;9.48;;;;;;;-4.93;69.45;99785.66;4805138;28;20073;-63
2023/01/01 00:31:46;;;;;;;24.08;11.20;;;;;;;-4.97;70.57;99778.69;4856965;28;20169;-65
2023/01/01 00:34:41;;;;;;;19.60;10.60;;;;;;;-4.94;71.20;99783.03;4813607;28;20102;-66
2023/01/01 00:37:17;;;;;;;21.92;9.77;;;;;;;-4.98;71.70;99776.97;4812641;28;20363;-64
2023/01/01 00:40:14;;;;;;;21.92;9.98;;;;;;;-4.92;72.01;99771.22;4856270;28;20034;-64
2023/01/01 00:42:51;;;;;;;30.33;11.57;;;;;;;-4.71;71.81;99786.47;4854148;28;20115;-63
2023/01/01 00:45:37;;;;;;;;;;;;;;;-4.65;71.88;99784.97;4859171;28;20131;-67
2023/01/01 00:48:22;;;;;;;22.73;10.45;;;;;;;-4.62;71.99;99782.56;4836535;28;19929;-64
2023/01/01 00:51:19;;;;;;;23.17;11.23;;;;;;;-4.77;72.07;99737.00;4817250;28;20046;-66
2023/01/01 00:53:55;;;;;;;24.90;12.02;;;;;;;-4.48;72.06;99785.59;4803171;28;20277;-65
2023/01/01 00:56:54;;;;;;;24.88;11.25;;;;;;;-4.72;72.07;99775.38;4866801;28;20148;-64
2023/01/01 01:05:16;;;;;;;;;;;;;;;-4.95;70.85;99777.06;4808833;28;20078;-64
2023/01/01 01:07:56;;;;;;;21.38;10.13;;;;;;;-5.03;71.74;99775.91;4874487;28;19932;-64
2023/01/01 01:10:40;;;;;;;19.77;10.32;;;;;;;-5.33;72.71;99766.28;4842267;28;20042;-64
2023/01/01 01:13:21;;;;;;;25.48;11.10;;;;;;;-5.59;73.60;99774.56;4827822;28;20464;-64
2023/01/01 01:19:02;;;;;;;21.25;11.10;;;;;;;-5.99;75.77;99772.94;4864849;28;20050;-64
2023/01/01 01:21:41;;;;;;;20.45;9.85;;;;;;;-6.09;76.93;99767.50;4856933;28;20045;-64
2023/01/01 01:24:26;;;;;;;27.30;10.80;;;;;;;-6.09;76.94;99767.50;4825307;28;20482;-65
2023/01/01 01:27:21;;;;;;;18.65;9.70;;;;;;;-6.29;77.09;99720.00;4839107;28;20042;-66
2023/01/01 01:33:01;;;;;;;22.50;10.95;;;;;;;-5.81;77.75;99755.88;4854421;28;20105;-66
2023/01/01 01:35:48;;;;;;;21.95;10.30;;;;;;;-5.85;77.60;99754.00;4771712;28;20089;-68
2023/01/01 01:41:25;;;;;;;20.70;10.07;;;;;;;-5.97;77.99;99745.91;4796734;28;20050;-61
2023/01/01 01:44:06;;;;;;;20.08;10.45;;;;;;;-6.00;78.61;99745.78;4793026;28;20048;-69
2023/01/01 01:46:55;;;;;;;20.50;9.50;;;;;;;-6.17;78.47;99738.31;4761874;29;20564;-66
2023/01/01 01:52:36;;;;;;;23.63;10.45;;;;;;;-5.99;79.03;99742.44;4779978;29;20071;-69
2023/01/01 01:58:52;;;;;;;22.83;8.23;;;;;;;-6.17;77.08;99733.22;4706910;29;20088;-64
2023/01/01 02:01:30;;;;;;;23.05;10.18;;;;;;;-6.25;77.37;99734.59;4735425;29;20053;-67
2023/01/01 02:04:24;;;;;;;29.02;11.07;;;;;;;-6.30;77.48;99725.91;4681211;29;20049;-65
2023/01/01 02:07:14;;;;;;;21.63;10.27;;;;;;;-6.30;76.59;99725.91;4709681;29;20091;-67
2023/01/01 02:16:08;;;;;;;17.48;7.32;;;;;;;-6.85;77.74;99718.44;4660055;29;20049;-67
2023/01/01 02:19:26;;;;;;;;;;;;;;;-7.21;79.68;99709.25;4643142;29;20047;-66
2023/01/01 02:22:17;;;;;;;15.90;7.43;;;;;;;-7.26;80.39;99715.78;4636237;29;20091;-66
2023/01/01 02:29:04;;;;;;;23.85;10.68;;;;;;;-6.90;79.94;99704.66;4674221;29;20109;-66
2023/01/01 02:31:56;;;;;;;23.73;9.98;;;;;;;-6.69;79.21;99700.50;4676551;29;20062;-70
2023/01/01 02:35:33;;;;;;;31.08;11.73;;;;;;;-6.54;78.09;99685.94;4680296;29;20078;-68
2023/01/01 02:38:03;;;;;;;23.38;10.55;;;;;;;-6.27;77.57;99680.25;4664342;29;20059;-69
2023/01/01 02:40:58;;;;;;;22.30;10.98;;;;;;;-6.29;76.00;99674.22;4662318;29;20119;-70
2023/01/01 02:44:13;;;;;;;22.75;10.48;;;;;;;-6.01;76.10;99677.94;4695661;29;20050;-69
2023/01/01 02:47:02;;;;;;;21.92;11.40;;;;;;;-5.63;74.99;99667.53;4658531;29;20315;-68
2023/01/01 02:50:21;;;;;;;31.08;14.05;;;;;;;-5.53;73.00;99683.19;4648903;29;20051;-66
2023/01/01 02:57:02;;;;;;;22.02;10.43;;;;;;;-5.37;70.78;99670.19;4767799;29;20295;-70
2023/01/01 03:03:33;;;;;;;22.58;10.98;;;;;;;-5.05;68.73;99657.78;4765928;28;20044;-69
2023/01/01 03:06:45;;;;;;;25.63;11.40;;;;;;;-4.95;68.38;99657.31;4740613;29;20072;-66
2023/01/01 03:10:08;;;;;;;21.48;10.70;;;;;;;-5.16;67.43;99654.00;4706705;29;20048;-68
2023/01/01 03:16:34;;;;;;;;;;;;;;;;;;;;;
2023/01/01 03:19:19;;;;;;;26.70;11.25;;;;;;;-5.30;65.42;99650.94;4727828;29;20043;-67
2023/01/01 03:21:57;;;;;;;27.13;11.80;;;;;;;-5.31;65.81;99650.06;4783483;29;20333;-68
2023/01/01 03:24:36;;;;;;;24.65;12.15;;;;;;;-5.29;65.31;99638.28;4739763;29;20060;-66
2023/01/01 03:27:23;;;;;;;22.42;11.55;;;;;;;-4.91;65.38;99646.44;4770932;29;20358;-65
2023/01/01 03:30:12;;;;;;;22.38;10.10;;;;;;;-4.96;63.21;99640.31;4777743;28;20053;-66
2023/01/01 03:33:47;;;;;;;22.70;11.18;;;;;;;-5.80;62.82;99561.69;4780768;28;20224;-66
2023/01/01 03:36:42;;;;;;;25.40;11.10;;;;;;;-5.34;63.58;99633.78;4776461;28;20101;-63
2023/01/01 03:39:27;;;;;;;23.83;10.23;;;;;;;-5.21;63.62;99631.78;4730512;28;20049;-69
2023/01/01 03:42:14;;;;;;;27.88;11.02;;;;;;;-5.18;62.81;99635.25;4838622;28;20061;-65
2023/01/01 03:45:05;;;;;;;22.38;10.48;;;;;;;-5.09;61.77;99635.56;4771635;28;20043;-67
2023/01/01 03:47:45;;;;;;;23.60;10.30;;;;;;;-5.29;62.42;99638.28;4783679;28;20058;-70
2023/01/01 03:50:27;;;;;;;25.88;11.20;;;;;;;-5.79;62.37;99614.34;4839644;28;20062;-66
2023/01/01 03:56:25;;;;;;;20.90;10.02;;;;;;;-6.53;65.01;99626.66;4784320;28;20055;-71
2023/01/01 03:59:17;;;;;;;17.08;8.20;;;;;;;-6.59;65.76;99646.75;4817521;28;20085;-69
2023/01/01 04:02:11;;;;;;;17.60;8.55;;;;;;;-6.86;65.90;99640.47;4809397;28;20107;-68
2023/01/01 04:04:53;;;;;;;22.88;9.73;;;;;;;-6.87;66.36;99648.91;4829378;28;20059;-71
2023/01/01 04:07:43;;;;;;;20.73;8.82;;;;;;;-6.80;67.00;99645.84;4769157;28;20039;-71
2023/01/01 04:10:32;;;;;;;21.08;9.52;;;;;;;-6.74;66.96;99635.94;4816419;28;20039;-65
2023/01/01 04:13:12;;;;;;;23.88;10.65;;;;;;;-6.75;66.35;99641.81;4838075;28;20054;-67
2023/01/01 04:15:48;;;;;;;20.58;9.30;;;;;;;-6.84;66.70;99655.03;4848420;28;20115;-70
2023/01/01 04:18:23;;;;;;;21.42;11.10;;;;;;;-7.12;67.63;99657.13;4774449;28;20046;-65
2023/01/01 04:21:08;;;;;;;20.05;8.48;;;;;;;-7.19;68.53;99671.22;4861290;28;20057;-63
2023/01/01 04:23:47;;;;;;;20.33;10.23;;;;;;;-7.45;70.34;99673.47;4831700;28;20085;-66
2023/01/01 04:26:26;;;;;;;23.52;10.73;;;;;;;-7.57;71.15;99672.03;4877467;28;20085;-65
2023/01/01 04:32:10;;;;;;;25.73;10.60;;;;;;;-7.77;73.43;99668.56;4839385;28;20062;-68
2023/01/01 04:37:50;;;;;;;26.90;10.15;;;;;;;-7.88;74.78;99661.31;4831860;28;20052;-67
2023/01/01 04:43:25;;;;;;;21.23;8.30;;;;;;;-7.83;74.07;99680.16;4791591;28;20069;-67
2023/01/01 04:46:17;;;;;;;21.52;10.45;;;;;;;-8.18;73.84;99610.03;4851694;28;20080;-69
2023/01/01 04:48:57;;;;;;;19.95;9.60;;;;;;;-7.82;73.89;99671.75;4853475;28;20062;-71
2023/01/01 04:51:48;;;;;;;23.17;10.00;;;;;;;-7.66;73.68;99672.47;4863960;28;20131;-68
2023/01/01 04:54:33;;;;;;;18.52;8.95;;;;;;;-7.76;73.44;99655.97;4851505;28;20046;-72
2023/01/01 04:57:39;;;;;;;20.85;9.35;;;;;;;-7.61;72.85;99681.19;4846044;28;20096;-69
2023/01/01 05:00:20;;;;;;;19.48;9.90;;;;;;;-7.76;73.16;99660.16;4822916;28;20093;-68
2023/01/01 05:03:05;;;;;;;18.48;8.05;;;;;;;-7.61;72.39;99681.19;4824740;28;20065;-70
2023/01/01 05:09:05;;;;;;;17.73;8.93;;;;;;;-8.04;70.11;99679.13;4860058;28;20351;-70
2023/01/01 05:12:03;;;;;;;15.63;6.82;;;;;;;-8.02;70.47;99682.59;4832384;28;20042;-70
2023/01/01 05:15:10;;;;;;;19.60;8.93;;;;;;;-8.17;71.50;99686.94;4862349;28;20069;-70
2023/01/01 05:18:05;;;;;;;18.30;7.90;;;;;;;-8.29;73.17;99683.00;4856764;28;20106;-71
2023/01/01 05:20:52;;;;;;;18.17;8.60;;;;;;;-8.35;74.60;99690.31;4825932;28;20482;-70
2023/01/01 05:23:44;;;;;;;23.75;9.52;;;;;;;-8.35;75.46;99692.84;4818979;28;20575;-69
2023/01/01 05:26:38;;;;;;;25.92;10.88;;;;;;;-8.32;76.35;99698.06;4784652;28;20111;-76
2023/01/01 05:29:15;;;;;;;19.42;8.38;;;;;;;-8.40;76.96;99704.44;4834449;28;20043;-71
2023/01/01 05:38:11;;;;;;;18.92;9.18;;;;;;;-8.81;78.40;99695.66;4840492;28;20287;-72
2023/01/01 05:41:11;;;;;;;26.15;12.35;;;;;;;-8.83;78.98;99714.94;4772655;28;20472;-68
2023/01/01 05:43:49;;;;;;;22.90;10.98;;;;;;;-8.93;79.53;99706.00;4786867;28;20051;-67
2023/01/01 05:46:36;;;;;;;21.98;10.20;;;;;;;-8.94;79.86;99713.50;4836776;28;20126;-69
2023/01/01 05:49:26;;;;;;;23.00;11.45;;;;;;;-8.97;80.51;99726.00;4815360;28;20054;-69
2023/01/01 05:52:09;;;;;;;23.83;11.27;;;;;;;-9.00;80.74;99725.84;4848818;28;21234;-68
2023/01/01 05:54:44;;;;;;;25.05;10.57;;;;;;;-9.09;79.75;99715.22;4831989;28;20039;-68
2023/01/01 05:57:36;;;;;;;23.45;10.85;;;;;;;-9.24;79.69;99723.75;4832582;28;20051;-68
2023/01/01 06:00:21;;;;;;;25.42;11.85;;;;;;;-9.30;80.10;99732.69;4796523;28;20131;-68
2023/01/01 06:03:01;;;;;;;24.70;11.05;;;;;;;-9.31;80.69;99733.47;4831203;28;20054;-69
2023/01/01 06:05:54;;;;;;;18.25;8.35;;;;;;;-9.61;80.97;99693.97;4839772;28;20057;-70
2023/01/01 06:09:22;;;;;;;29.65;11.98;;;;;;;-9.35;80.59;99737.50;4834244;28;20149;-68
2023/01/01 06:12:01;;;;;;;28.23;12.02;;;;;;;-9.39;80.75;99738.09;4842225;28;20069;-75
2023/01/01 06:14:46;;;;;;;21.42;9.75;;;;;;;-9.50;80.20;99729.06;4794678;28;20042;-70
2023/01/01 06:17:47;;;;;;;;;;;;;;;-9.68;80.04;99734.88;4844393;28;20053;-72
2023/01/01 06:20:44;;;;;;;27.63;11.35;;;;;;;-9.76;79.60;99731.03;4844593;28;20024;-75
2023/01/01 06:23:52;;;;;;;20.10;9.15;;;;;;;-9.84;79.08;99729.72;4842291;28;20053;-71
2023/01/01 06:26:52;;;;;;;;;;;;;;;-9.90;79.21;99734.47;4831878;28;20054;-70
2023/01/01 06:29:38;;;;;;;20.20;9.65;;;;;;;-9.92;79.14;99741.09;4836936;28;19936;-73
2023/01/01 06:32:29;;;;;;;24.15;10.75;;;;;;;-9.93;79.42;99741.84;4852323;28;20059;-70
2023/01/01 06:35:17;;;;;;;24.60;11.50;;;;;;;-9.99;79.39;99753.34;4837487;28;20332;-72
2023/01/01 06:37:53;;;;;;;26.08;11.13;;;;;;;-9.99;79.81;99755.00;4845879;28;20053;-72
2023/01/01 06:40:37;;;;;;;24.45;9.50;;;;;;;-10.04;79.98;99759.81;4814133;28;20109;-72
2023/01/01 06:43:11;;;;;;;27.60;12.05;;;;;;;-10.14;79.69;99742.38;4863368;28;20137;-73
2023/01/01 06:46:06;;;;;;;22.73;10.98;;;;;;;-10.10;79.32;99759.47;4808206;28;20149;-73
2023/01/01 06:48:49;;;;;;;27.23;12.75;;;;;;;-10.13;79.40;99764.34;4828340;28;20054;-69
2023/01/01 06:54:22;;;;;;;25.63;12.00;;;;;;;-10.08;78.92;99768.00;4813151;28;20043;-75
2023/01/01 07:00:14;;;;;;;32.15;12.85;;;;;;;-10.07;78.61;99764.69;4820905;28;20058;-76
2023/01/01 07:02:59;;;;;;;26.98;11.85;;;;;;;-10.10;78.11;99759.47;4782658;28;20038;-70
2023/01/01 07:08:53;;;;;;;30.25;13.00;;;;;;;-10.25;76.76;99763.63;4840833;28;20062;-71
2023/01/01 07:11:43;;;;;;;26.40;12.27;;;;;;;-10.34;75.98;99773.22;4820827;28;20051;-71
2023/01/01 07:14:33;;;;;;;25.45;11.25;;;;;;;-10.51;76.02;99760.47;4831981;28;20070;-76
2023/01/01 07:17:30;;;;;;;26.50;10.98;;;;;;;-10.48;75.24;99775.84;4821833;28;20062;-72
2023/01/01 07:20:29;;;;;;;41.38;18.77;;;;;;;-10.53;75.14;99777.22;4813927;28;20043;-73
2023/01/01 07:23:37;;;;;;;24.73;11.88;;;;;;;-10.58;74.93;99781.13;4826236;28;20047;-72
2023/01/01 07:26:27;;;;;;;35.72;14.30;;;;;;;-10.59;74.90;99775.97;4832957;28;20102;-71
2023/01/01 07:29:26;;;;;;;32.97;12.30;;;;;;;-10.60;74.81;99790.25;4767386;28;20117;-72
2023/01/01 07:32:29;;;;;;;24.65;11.38;;;;;;;-10.74;73.92;99788.53;4799690;28;20072;-72
2023/01/01 07:35:13;;;;;;;30.75;11.82;;;;;;;-10.96;74.02;99777.13;4817700;28;20042;-69
2023/01/01 07:38:07;;;;;;;27.00;11.20;;;;;;;-11.00;74.06;99797.94;4765770;28;20112;-70
2023/01/01 07:41:01;;;;;;;24.07;11.93;;;;;;;-11.18;74.05;99782.53;4805560;28;20054;-71
2023/01/01 07:43:57;;;;;;;27.40;12.02;;;;;;;-11.23;74.71;99804.09;4843016;28;20304;-72
2023/01/01 07:46:30;;;;;;;32.63;13.45;;;;;;;-11.25;74.94;99812.34;4836010;28;20057;-72
2023/01/01 07:49:25;;;;;;;35.45;14.48;;;;;;;-11.27;74.92;99806.31;4847128;28;20117;-71
2023/01/01 07:52:08;;;;;;;53.60;20.00;;;;;;;-11.23;74.66;99804.09;4841878;28;20339;-75
2023/01/01 07:55:00;;;;;;;172.27;56.20;;;;;;;-11.45;73.55;99806.91;4857554;28;20236;-70
2023/01/01 07:57:39;;;;;;;171.23;57.72;;;;;;;-11.55;73.63;99799.53;4855894;28;20051;-72
2023/01/01 08:01:00;;;;;;;107.03;35.63;;;;;;;-11.76;73.35;99804.06;4847565;28;20212;-72
2023/01/01 08:03:47;;;;;;;40.72;15.85;;;;;;;-11.90;73.23;99795.66;4824714;28;20051;-71
2023/01/01 08:06:36;;;;;;;54.08;21.80;;;;;;;-11.97;73.20;99793.50;4825850;28;20058;-70
2023/01/01 08:09:27;;;;;;;57.25;22.77;;;;;;;-12.03;72.90;99794.00;4819521;28;20312;-70
2023/01/01 08:16:01;;;;;;;53.90;20.55;;;;;;;-12.33;72.64;99780.25;4845240;28;20050;-71
2023/01/01 08:18:39;;;;;;;80.93;27.30;;;;;;;-12.41;73.17;99778.88;4834106;28;20119;-71
2023/01/01 08:21:24;;;;;;;38.20;15.07;;;;;;;-12.47;73.31;99773.44;4822896;28;20343;-70
2023/01/01 08:24:06;;;;;;;65.72;24.30;;;;;;;-12.40;73.56;99785.66;4838728;28;20254;-71
2023/01/01 08:27:13;;;;;;;66.60;25.67;;;;;;;-12.50;73.31;99788.31;4792725;28;20084;-70
2023/01/01 08:29:57;;;;;;;264.27;59.47;;;;;;;-12.84;72.75;99791.94;4877033;28;20070;-70
2023/01/01 08:32:58;;;;;;;138.27;38.10;;;;;;;-13.14;72.69;99780.66;4837658;28;20110;-70
2023/01/01 08:35:48;;;;;;;111.03;32.22;;;;;;;-13.53;72.91;99794.72;4805878;28;20055;-69
2023/01/01 08:38:36;;;;;;;38.42;14.18;;;;;;;-13.64;73.48;99785.56;4817949;28;20149;-67
2023/01/01 08:41:43;;;;;;;30.33;13.77;;;;;;;-14.02;73.61;99781.19;4764674;28;20237;-69
2023/01/01 08:44:23;;;;;;;36.45;14.77;;;;;;;-14.06;74.12;99794.25;4819500;28;20069;-69
2023/01/01 08:47:33;;;;;;;35.78;13.75;;;;;;;-15.00;74.34;99683.66;4818837;28;20046;-70
2023/01/01 08:50:12;;;;;;;35.25;14.35;;;;;;;-14.54;75.40;99802.47;4790859;29;20077;-69
2023/01/01 08:52:55;;;;;;;26.45;12.13;;;;;;;-14.66;76.18;99796.53;4805989;28;20046;-69
2023/01/01 08:55:41;;;;;;;73.03;20.60;;;;;;;-14.74;76.42;99792.56;4810969;28;20385;-68
2023/01/01 08:58:25;;;;;;;129.40;30.30;;;;;;;-14.96;76.39;99805.09;4830420;28;20073;-69
2023/01/01 09:03:55;;;;;;;36.33;15.10;;;;;;;-15.37;76.67;99810.28;4843315;28;20046;-69
2023/01/01 09:06:59;;;;;;;28.05;13.45;;;;;;;-15.44;77.46;99813.97;4832375;28;20289;-69
2023/01/01 09:09:34;;;;;;;28.45;13.43;;;;;;;-15.44;77.80;99812.31;4828959;28;20070;-68
2023/01/01 09:12:45;;;;;;;57.92;15.82;;;;;;;-15.36;78.09;99820.44;4846524;28;20054;-69
2023/01/01 09:15:21;;;;;;;123.85;33.90;;;;;;;-15.31;78.30;99831.69;4828460;28;20046;-69
2023/01/01 09:18:05;;;;;;;125.93;45.60;;;;;;;-15.32;78.30;99837.47;4808605;28;20062;-68
2023/01/01 09:20:46;;;;;;;62.47;24.58;;;;;;;-15.45;78.44;99837.25;4814724;28;20101;-69
2023/01/01 09:26:31;;;;;;;39.17;13.80;;;;;;;-15.27;78.75;99827.81;4756118;28;20082;-67
2023/01/01 09:29:26;;;;;;;71.72;18.73;;;;;;;-15.32;78.75;99824.03;4796382;28;20106;-68
2023/01/01 09:32:14;;;;;;;64.15;17.25;;;;;;;-15.18;78.96;99827.63;4806430;28;20077;-69
2023/01/01 09:35:01;;;;;;;29.20;11.60;;;;;;;-15.04;78.86;99832.09;4804708;28;20054;-69
2023/01/01 09:37:40;;;;;;;36.60;13.73;;;;;;;-14.79;78.83;99825.69;4845517;28;20050;-68
2023/01/01 09:40:32;;;;;;;35.22;12.80;;;;;;;-14.86;78.01;99800.91;4843168;28;20050;-68
2023/01/01 09:43:43;;;;;;;53.05;16.85;;;;;;;-14.64;77.72;99830.13;4853055;28;20051;-68
2023/01/01 09:46:32;;;;;;;22.90;8.75;;;;;;;-14.86;77.83;99812.56;4844691;28;20058;-68
2023/01/01 09:53:27;;;;;;;27.55;10.20;;;;;;;-14.75;79.57;99825.91;4826884;28;20057;-68
2023/01/01 09:56:11;;;;;;;38.55;11.02;;;;;;;-14.73;79.14;99819.38;4830060;28;20120;-68
2023/01/01 09:58:49;;;;;;;138.13;29.58;;;;;;;-14.70;78.98;99815.50;4803637;28;20153;-69
2023/01/01 10:01:39;;;;;;;87.78;24.38;;;;;;;-14.71;78.84;99812.88;4742878;28;20063;-69
2023/01/01 10:05:02;;;;;;;110.05;24.33;;;;;;;-14.69;79.09;99816.38;4839022;28;20392;-68
2023/01/01 10:08:17;;;;;;;75.20;18.63;;;;;;;-14.53;79.31;99819.25;4834424;28;20057;-68
2023/01/01 10:11:04;;;;;;;104.18;25.77;;;;;;;-14.40;79.28;99811.88;4786554;28;20046;-69
2023/01/01 10:13:59;;;;;;;77.50;21.08;;;;;;;-14.30;78.50;99812.53;4838505;28;20043;-69
2023/01/01 10:16:43;;;;;;;69.32;20.80;;;;;;;-14.36;77.95;99808.81;4831607;28;20164;-68
2023/01/01 10:22:47;;;;;;;164.73;38.38;;;;;;;-14.65;77.22;99813.31;4814554;28;20580;-68
2023/01/01 10:25:46;;;;;;;162.25;42.40;;;;;;;-14.58;77.25;99795.47;4853859;28;20055;-69
2023/01/01 10:28:33;;;;;;;92.10;26.08;;;;;;;-14.57;76.86;99817.28;4847336;28;20053;-69
2023/01/01 10:31:28;;;;;;;33.67;13.05;;;;;;;-14.67;76.66;99815.72;4842834;28;20097;-69
2023/01/01 10:34:31;;;;;;;27.50;11.25;;;;;;;-14.78;76.73;99842.47;4801800;28;20061;-68
2023/01/01 10:37:16;;;;;;;29.02;10.30;;;;;;;-14.63;76.64;99831.88;4820565;28;20050;-69
2023/01/01 10:40:27;;;;;;;20.83;9.27;;;;;;;-14.59;76.27;99821.31;4845120;28;20058;-68
2023/01/01 10:43:19;;;;;;;34.03;13.68;;;;;;;-14.55;75.74;99828.28;4841944;28;20053;-69
2023/01/01 10:46:14;;;;;;;38.05;12.77;;;;;;;-15.73;74.67;99639.78;4841030;28;20050;-68
2023/01/01 10:49:10;;;;;;;25.40;10.23;;;;;;;-14.90;74.32;99786.41;4771744;28;20170;-69
2023/01/01 10:51:49;;;;;;;21.95;10.43;;;;;;;-15.08;74.25;99800.03;4860608;28;20055;-69
2023/01/01 10:54:34;;;;;;;24.30;10.93;;;;;;;-15.86;74.17;99707.22;4841881;28;20050;-68
2023/01/01 10:57:45;;;;;;;23.25;10.75;;;;;;;-15.27;74.31;99818.66;4836983;28;20061;-68
2023/01/01 11:00:36;;;;;;;19.55;8.98;;;;;;;-15.38;73.92;99818.56;4844803;28;20125;-68
2023/01/01 11:03:37;;;;;;;19.20;8.73;;;;;;;-15.43;73.46;99830.72;4834666;28;20050;-68
2023/01/01 11:06:24;;;;;;;20.23;8.82;;;;;;;-15.67;74.15;99815.53;4859519;28;20039;-68
2023/01/01 11:09:10;;;;;;;19.30;8.07;;;;;;;-15.79;75.29;99824.59;4835460;28;20136;-68
2023/01/01 11:11:56;;;;;;;11.30;6.82;;;;;;;-16.03;76.03;99792.59;4827298;28;20327;-69
2023/01/01 11:18:18;;;;;;;20.33;8.05;;;;;;;-15.66;77.06;99817.25;4814447;28;20096;-67
2023/01/01 11:20:58;;;;;;;;;;;;;;;-15.69;76.83;99832.06;4837703;28;20054;-68
2023/01/01 11:24:09;;;;;;;;;;;;;;;-15.72;77.48;99831.84;4822996;28;19922;-67
2023/01/01 11:27:29;;;;;;;13.25;7.80;;;;;;;-15.69;77.83;99841.22;4831888;28;19926;-67
2023/01/01 11:30:30;;;;;;;17.88;8.40;;;;;;;-15.81;78.32;99781.03;4840277;28;20042;-67
2023/01/01 11:37:44;;;;;;;14.43;7.25;;;;;;;-15.16;77.45;99841.16;4856369;28;20226;-68
2023/01/01 11:40:37;;;;;;;17.67;8.02;;;;;;;-14.99;77.29;99843.34;4848198;28;20320;-68
2023/01/01 11:43:26;;;;;;;19.05;8.35;;;;;;;-14.84;77.43;99832.00;4838950;28;20546;-67
2023/01/01 11:46:31;;;;;;;19.38;8.95;;;;;;;-14.84;77.46;99837.00;4862805;28;20065;-68
2023/01/01 11:52:55;;;;;;;26.98;9.32;;;;;;;-15.07;77.15;99816.81;4832556;28;20060;-69
2023/01/01 12:02:08;;;;;;;20.48;8.07;;;;;;;-15.23;77.87;99835.66;4801090;28;20314;-67
2023/01/01 12:04:55;;;;;;;18.98;7.82;;;;;;;-15.09;78.04;99838.38;4833518;28;20106;-66
2023/01/01 12:07:51;;;;;;;16.77;8.13;;;;;;;-15.02;77.80;99840.63;4812688;28;20087;-66
2023/01/01 12:10:56;;;;;;;24.35;8.88;;;;;;;-14.92;77.59;99828.03;4824097;28;20279;-65
2023/01/01 12:16:51;;;;;;;30.48;11.10;;;;;;;-14.73;77.32;99839.44;4842340;28;20074;-65
2023/01/01 12:19:57;;;;;;;25.30;9.63;;;;;;;-14.89;75.88;99844.94;4787215;28;20107;-66
2023/01/01 12:22:56;;;;;;;19.25;9.10;;;;;;;-14.92;74.95;99852.19;4836146;28;20121;-65
2023/01/01 12:26:12;;;;;;;21.92;8.45;;;;;;;-15.42;73.83;99857.53;4848272;28;20067;-66
2023/01/01 12:29:44;;;;;;;19.25;8.75;;;;;;;-15.55;73.38;99854.81;4836917;28;20488;-69
2023/01/01 12:32:37;;;;;;;18.48;7.50;;;;;;;-15.56;73.32;99848.06;4826305;28;20149;-65
2023/01/01 12:39:58;;;;;;;8.48;4.10;;;;;;;-15.09;74.15;99834.25;4826039;28;20050;-66
2023/01/01 12:43:10;;;;;;;16.45;6.35;;;;;;;-14.78;73.24;99837.47;4762963;29;20048;-65
2023/01/01 12:46:36;;;;;;;19.42;8.32;;;;;;;-14.69;72.71;99821.38;4776578;29;20051;-66
2023/01/01 12:50:02;;;;;;;18.23;9.07;;;;;;;-14.67;72.01;99832.41;4772735;29;20056;-64
2023/01/01 12:53:27;;;;;;;17.92;7.38;;;;;;;-14.63;71.80;99836.88;4786403;29;20132;-67
2023/01/01 12:56:36;;;;;;;14.90;6.57;;;;;;;-14.61;71.33;99832.84;4775576;29;20066;-67
2023/01/01 13:02:18;;;;;;;14.23;6.60;;;;;;;-14.62;70.93;99823.59;4765486;29;20048;-68
2023/01/01 13:08:26;;;;;;;13.00;6.35;;;;;;;-14.88;70.94;99835.00;4728951;29;20390;-67
2023/01/01 13:11:22;;;;;;;18.10;9.45;;;;;;;-14.81;71.09;99832.22;4735284;29;20076;-67
2023/01/01 13:14:12;;;;;;;18.80;8.82;;;;;;;-14.95;71.04;99826.91;4813275;28;20117;-67
2023/01/01 13:19:37;;;;;;;29.92;12.27;;;;;;;-15.81;70.41;99720.97;4851337;28;19936;-68
2023/01/01 13:22:43;;;;;;;22.48;11.50;;;;;;;-15.15;70.64;99833.75;4840638;28;20058;-67
2023/01/01 13:25:51;;;;;;;15.50;10.20;;;;;;;-15.04;71.17;99832.97;4880665;28;20050;-67
2023/01/01 13:32:01;;;;;;;15.20;8.43;;;;;;;-15.10;70.76;99831.59;4821674;28;20061;-66
2023/01/01 13:35:19;;;;;;;15.38;7.22;;;;;;;-15.14;70.94;99834.66;4827622;28;20054;-67
2023/01/01 13:38:26;;;;;;;11.98;7.28;;;;;;;-15.10;71.33;99831.59;4849200;28;20057;-67
2023/01/01 13:41:43;;;;;;;16.20;7.55;;;;;;;-15.13;71.26;99826.34;4868623;28;20146;-68
2023/01/01 13:44:36;;;;;;;13.68;6.82;;;;;;;-15.15;71.06;99827.88;4841019;28;20121;-66
2023/01/01 13:47:41;;;;;;;18.48;7.30;;;;;;;-15.33;71.08;99818.16;4818472;28;20096;-67
2023/01/01 13:50:43;;;;;;;13.00;6.10;;;;;;;-15.57;71.20;99821.25;4829831;28;20051;-68
2023/01/01 13:53:51;;;;;;;13.15;6.13;;;;;;;-15.68;71.46;99823.78;4830541;28;20072;-68
2023/01/01 13:56:53;;;;;;;11.70;5.47;;;;;;;-15.76;71.73;99818.97;4832766;28;20046;-68
2023/01/01 14:03:02;;;;;;;;;;;;;;;-15.91;72.07;99828.63;4769466;29;20099;-67
2023/01/01 14:06:06;;;;;;;52.92;13.98;;;;;;;-15.95;72.13;99826.59;4760849;29;19973;-67
2023/01/01 14:09:02;;;;;;;25.35;10.43;;;;;;;-16.01;72.19;99821.13;4743807;29;21572;-65
2023/01/01 14:12:16;;;;;;;18.50;7.45;;;;;;;-16.06;72.55;99817.38;4765583;29;20056;-66
2023/01/01 14:14:59;;;;;;;19.70;9.48;;;;;;;-16.04;72.73;99810.88;4751657;29;20049;-67
2023/01/01 14:18:00;;;;;;;10.45;6.60;;;;;;;-16.38;72.53;99748.09;4787297;29;20075;-67
2023/01/01 14:20:53;;;;;;;9.27;6.40;;;;;;;-15.97;72.75;99795.56;4776461;29;20049;-67
2023/01/01 14:23:50;;;;;;;12.85;6.90;;;;;;;-15.82;72.70;99804.34;4755626;29;20048;-67
2023/01/01 14:26:45;;;;;;;19.13;8.10;;;;;;;-15.57;72.71;99811.22;4778117;29;20060;-66
2023/01/01 14:29:25;;;;;;;12.82;6.47;;;;;;;-15.44;72.31;99808.94;4741778;29;20044;-68
2023/01/01 14:32:32;;;;;;;7.70;5.00;;;;;;;-15.59;71.37;99803.59;4769773;29;20056;-66
2023/01/01 14:35:20;;;;;;;13.68;6.50;;;;;;;-15.86;71.22;99792.31;4706932;29;20420;-68
2023/01/01 14:37:59;;;;;;;19.63;6.90;;;;;;;-15.97;71.86;99788.06;4775122;29;20189;-67
2023/01/01 14:40:34;;;;;;;29.33;10.05;;;;;;;-15.97;72.32;99783.06;4787300;28;20140;-67
2023/01/01 14:48:58;;;;;;;19.73;6.53;;;;;;;-15.90;72.59;99770.28;4835718;28;20089;-65
2023/01/01 14:52:00;;;;;;;10.88;5.18;;;;;;;-15.95;72.78;99771.53;4860764;28;20068;-67
2023/01/01 14:54:55;;;;;;;9.98;5.40;;;;;;;-16.03;73.21;99762.56;4845936;28;20042;-67
2023/01/01 14:57:43;;;;;;;14.15;6.57;;;;;;;-15.82;73.27;99773.38;4792833;28;20135;-66
2023/01/01 15:00:41;;;;;;;13.23;5.53;;;;;;;-15.60;73.65;99770.91;4797341;28;20053;-67
2023/01/01 15:03:25;;;;;;;11.15;5.35;;;;;;;-15.49;73.02;99760.13;4839613;28;22557;-67
2023/01/01 15:06:26;;;;;;;9.15;5.10;;;;;;;-15.49;72.49;99765.13;4838172;28;20050;-67
2023/01/01 15:09:22;;;;;;;5.10;3.70;;;;;;;-15.63;72.77;99766.53;4852043;28;20043;-65
2023/01/01 15:12:01;;;;;;;11.48;5.13;;;;;;;-15.74;73.12;99773.25;4816227;28;20073;-65
2023/01/01 15:14:45;;;;;;;13.35;6.05;;;;;;;-15.74;73.40;99768.25;4846882;28;20050;-67
2023/01/01 15:17:30;;;;;;;10.73;5.43;;;;;;;-15.81;73.45;99746.00;4853249;28;20339;-66
2023/01/01 15:20:27;;;;;;;13.13;5.30;;;;;;;-15.66;73.37;99764.69;4843140;28;20058;-67
2023/01/01 15:23:29;;;;;;;12.15;5.57;;;;;;;-15.63;73.14;99768.19;4787207;28;20098;-66
2023/01/01 15:26:17;;;;;;;11.60;5.88;;;;;;;-15.56;73.59;99768.78;4795965;28;20114;-68
2023/01/01 15:29:03;;;;;;;13.70;6.22;;;;;;;-15.58;73.16;99772.78;4834822;28;20039;-67
2023/01/01 15:31:52;;;;;;;16.90;5.68;;;;;;;-15.87;72.76;99770.56;4851943;28;20061;-67
2023/01/01 15:34:35;;;;;;;22.23;7.45;;;;;;;-15.87;72.25;99761.41;4828172;28;20433;-66